Tiempo atmosférico en la estación meteorológica de Barbate, Cádiz (4 m.)



Fecha
DESCASC
Temp. máxima en grados centígrados (hora)
DESCASC
Temp. mínima en grados centígrados (hora)
DESCASC
Temp. media en grados centígrados
DESCASC
Racha de viento máxima en m/sg (hora)
DESCASC
Velocidad máxima media en intervalos de 10 minutos(hora)
DESCASC
Precipitaciones diarias en mm
DESCASC
Precipitaciones de 00:00 a 06:00 en mm
DESCASC
Precipitaciones de 06:00 a 12:00 en mm
DESCASC
Precipitaciones de 12:00 a 18:00 en mm
DESCASC
Precipitaciones de 18:00 a 24:00 en mm
DESCASC
26-03-2020 17.7 (13:50) 8.3 (07:40) 13 10.83 (15:20) 8.33 (14:30) 0 0 0 0 0
25-03-2020 18.7 (15:50) 11.1 (23:59) 14.9 9.72 (10:10) 6.67 (18:10) 0.6 0 0.6 0 0
24-03-2020 15.2 (18:00) 11.1 (07:20) 13.2 10.83 (22:40) 6.11 (23:20) 29.6 5.4 19.4 4.8 0
23-03-2020 19.2 (15:30) 8.6 (05:10) 13.9 14.44 (20:00) 8.33 (17:50) 0 0 0 0 0
22-03-2020 16.8 (13:50) 10.1 (23:59) 13.4 7.5 (02:40) 5.83 (16:30) 0.8 0.4 0.4 0 0
21-03-2020 15.8 (12:30) 11.2 (00:00) 13.5 19.72 (14:30) 13.61 (14:30) 14.8 0 1.2 7.6 6
20-03-2020 18.9 (16:00) 12.8 (00:00) 15.8 16.11 (22:30) 12.78 (22:40) 7.6 0 0 0 7.6
19-03-2020 17.7 (11:10) 15.8 (00:00) 16.8 27.22 (05:00) 20 (05:00) 0 0 0 0 0
18-03-2020 18.7 (14:50) 15.1 (00:00) 16.9 28.89 (14:20) 20 (15:30) 3 3 0 0 0
17-03-2020 17.7 (16:30) 8.8 (00:00) 13.3 15.56 (13:20) 12.22 (07:10) 7.2 0.2 2.8 0 4.2
16-03-2020 17 (16:50) 10.7 (00:00) 13.8 13.89 (17:20) 8.61 (16:30) 0.2 0.2 0 0 0
15-03-2020 22.2 (13:30) 14.5 (00:00) 18.4 11.39 (11:40) 7.78 (14:30) 0 0 0 0 0
14-03-2020 21.4 (17:40) 10.4 (00:00) 15.9 8.33 (15:10) 6.67 (14:40) 0 0 0 0 0
13-03-2020 18.9 (14:30) 12.5 (23:50) 15.7 5.83 (13:30) 4.44 (13:30) 0 0 0 0 0
12-03-2020 20.2 (17:40) 12.9 (00:00) 16.6 7.5 (17:10) 6.39 (12:30) 0 0 0 0 0
11-03-2020 25.5 (14:50) 14.2 (00:00) 19.8 12.5 (11:40) 9.17 (09:30) 0 0 0 0 0
10-03-2020 24.3 (14:40) 8.3 (00:00) 16.3 13.89 (21:50) 8.89 (17:00) 0 0 0 0 0
09-03-2020 24.2 (14:30) 8.4 (00:00) 16.3 9.44 (15:00) 7.22 (15:00) 0 0 0 0 0
08-03-2020 20.4 (12:10) 6.4 (00:00) 13.4 5.83 (14:40) 4.72 (14:40) 0 0 0 0 0
07-03-2020 20.3 (12:50) 7.3 (00:00) 13.8 6.94 (13:20) 5.83 (13:30) 0 0 0 0 0
06-03-2020 17.9 (13:40) 9.8 (00:00) 13.8 11.39 (17:20) 7.5 (14:30) 0 0 0 0 0
05-03-2020 17.9 (11:50) 8.4 (00:00) 13.1 11.11 (14:10) 7.22 (14:50) 0.4 0 0 0.4 0
04-03-2020 20.6 (15:10) 13 (00:00) 16.8 10.28 (16:10) 7.5 (15:50) 0 0 0 0 0
03-03-2020 17.4 (14:10) 9.2 (00:00) 13.3 10.28 (14:50) 7.78 (18:00) 0 0 0 0 0
02-03-2020 18.5 (15:30) 14.8 (00:00) 16.7 13.06 (16:30) 10 (06:30) 0.2 0 0.2 0 0
01-03-2020 18.7 (14:10) 13.5 (00:00) 16.1 11.67 (00:10) 9.17 (00:40) 2.2 2.2 0 0 0
29-02-2020 18.4 (13:50) 7.7 (00:00) 13 11.94 (23:50) 9.44 (23:50) 0 0 0 0 0
28-02-2020 21.7 (15:50) 6.5 (00:00) 14.1 8.06 (14:00) 7.22 (14:00) 0 0 0 0 0

Gráficas

Temp. máximas Temp. mínimas Temp. medias Precipitaciones Rachas de viento máximas Velocidades máximas media en intervalos de 10 minutos

Datos horarios

Fecha y hora oficial Temperatura (ºC) Velocidad del viento (km/h) Dirección del viento Racha (km/h) Dirección de racha Precipitación (mm) Presión (hPa) Tendencia (hPa) Humedad (%)
2020-03-28 23:00:00 13.8 7 Nordeste 23 Este 0 -- -- 78
2020-03-28 22:00:00 14.4 9 Sudeste 33 Este 0 -- -- 74
2020-03-28 21:00:00 14.2 12 Este 25 Este 0 -- -- 73
2020-03-28 20:00:00 14.7 10 Nordeste 32 Este 0 -- -- 71
2020-03-28 19:00:00 16.3 21 Este 33 Este 0 -- -- 67
2020-03-28 18:00:00 17.2 19 Este 31 Este 0 -- -- 65
2020-03-28 17:00:00 17.4 12 Este 24 Este 0 -- -- 64
2020-03-28 16:00:00 17.6 16 Sudoeste 19 Sudoeste 0 -- -- 65
2020-03-28 15:00:00 17.7 15 Sudoeste 19 Sudoeste 0 -- -- 63
2020-03-28 14:00:00 18.4 10 Sudoeste 14 Sur 0 -- -- 56
2020-03-28 13:00:00 17.8 13 Sur 22 Sur 0 -- -- 67
2020-03-28 12:00:00 17.4 15 Sur 19 Sur 0 -- -- 70
2020-03-28 11:00:00 16.8 13 Sur 16 Sur 0 -- -- 73
2020-03-28 10:00:00 12.7 7 Norte 14 Norte 0 -- -- 85
2020-03-28 09:00:00 9.6 8 Norte 15 Norte 0 -- -- 92
2020-03-28 08:00:00 8.7 7 Norte 14 Norte 0 -- -- 92
2020-03-28 07:00:00 8.7 7 Norte 13 Norte 0 -- -- 93
2020-03-28 06:00:00 8.6 7 Norte 15 Norte 0 -- -- 92
2020-03-28 05:00:00 9 8 Norte 14 Norte 0 -- -- 92
2020-03-28 04:00:00 9.1 6 Norte 12 Norte 0 -- -- 92
2020-03-28 03:00:00 8.9 8 Norte 11 Nordeste 0 -- -- 92
2020-03-28 02:00:00 9.1 6 Norte 12 Nordeste 0 -- -- 91
2020-03-28 01:00:00 9.5 9 Nordeste 13 Norte 0 -- -- 89
2020-03-28 00:00:00 10.7 6 Norte 10 Norte 0 -- -- 86
2020-03-27 23:00:00 11.1 6 Nordeste 9 Norte 0 -- -- 86
2020-03-27 22:00:00 12.2 6 Nordeste 8 Nordeste 0 -- -- 85
2020-03-27 21:00:00 14.2 6 Noroeste 12 Oeste 0 -- -- 70
2020-03-27 20:00:00 14.6 9 Oeste 19 Oeste 0 -- -- 71
2020-03-27 19:00:00 15.6 14 Oeste 22 Oeste 0 -- -- 71
2020-03-27 18:00:00 16.8 15 Sudoeste 19 Sudoeste 0 -- -- 69
2020-03-27 17:00:00 17.8 12 Sudoeste 17 Sudoeste 0 -- -- 65
2020-03-27 16:00:00 17.6 13 Sudoeste 22 Sudoeste 0 -- -- 64
2020-03-27 15:00:00 17.6 18 Sudoeste 22 Sudoeste 0 -- -- 67
2020-03-27 14:00:00 17.4 14 Sudoeste 23 Sudoeste 0 -- -- 69
2020-03-27 13:00:00 16.8 19 Sudoeste 26 Sudoeste 0 -- -- 72
2020-03-27 12:00:00 16.3 17 Sudoeste 22 Sudoeste 0 -- -- 73
2020-03-27 11:00:00 15.7 4 Oeste 13 Este 0 -- -- 75
2020-03-27 10:00:00 13.9 6 Nordeste 11 Nordeste 0 -- -- 83
2020-03-27 09:00:00 10.7 6 Nordeste 13 Norte 0 -- -- 93
2020-03-27 08:00:00 10.3 8 Norte 13 Norte 0 -- -- 94
2020-03-27 07:00:00 10.2 5 Norte 9 Norte 0 -- -- 94
2020-03-27 06:00:00 10.1 0 Calma 10 Norte 0 -- -- 93
2020-03-27 05:00:00 10.6 5 Norte 8 Norte 0 -- -- 92
2020-03-27 04:00:00 11.4 5 Nordeste 7 Nordeste 0 -- -- 92
2020-03-27 03:00:00 12.5 2 Nordeste 8 Este 0 -- -- 91
2020-03-27 02:00:00 12.7 8 Este 12 Norte 0 -- -- 90
2020-03-27 01:00:00 14.2 3 Norte 21 Noroeste 0 -- -- 87
2020-03-27 00:00:00 15.2 14 Noroeste 25 Oeste 0 -- -- 86
2020-03-26 23:00:00 15.3 15 Oeste 24 Oeste 0 -- -- 81
2020-03-26 22:00:00 15.1 13 Oeste 24 Oeste 0 -- -- 85
2020-03-26 21:00:00 15.2 17 Oeste 25 Oeste 0 -- -- 84
2020-03-26 20:00:00 15.7 17 Oeste 28 Oeste 0 -- -- 81
2020-03-26 19:00:00 16.7 21 Oeste 30 Oeste 0 -- -- 79
2020-03-26 18:00:00 16.9 24 Oeste 36 Oeste 0 -- -- 81
2020-03-26 17:00:00 17.1 27 Oeste 36 Oeste 0 -- -- 80
2020-03-26 16:00:00 17.3 29 Oeste 39 Oeste 0 -- -- 77
2020-03-26 15:00:00 17.4 29 Oeste 36 Oeste 0 -- -- 77
2020-03-26 14:00:00 17.5 30 Oeste 35 Oeste 0 -- -- 77
2020-03-26 13:00:00 17.3 21 Oeste 28 Oeste 0 -- -- 82
2020-03-26 12:00:00 17.4 13 Sudoeste 18 Sudoeste 0 -- -- 76
2020-03-26 11:00:00 15.3 9 Sudoeste 12 Sudoeste 0 -- -- 80
2020-03-26 10:00:00 12.8 0 Calma 10 Sudeste 0 -- -- 90
2020-03-26 09:00:00 10 6 Norte 12 Norte 0 -- -- 93
2020-03-26 08:00:00 8.4 6 Norte 12 Norte 0 -- -- 94
2020-03-26 07:00:00 8.8 6 Norte 10 Nordeste 0 -- -- 93
2020-03-26 06:00:00 8.9 7 Norte 12 Norte 0 -- -- 92
2020-03-26 05:00:00 9.4 7 Norte 13 Norte 0 -- -- 92
2020-03-26 04:00:00 9.8 5 Norte 10 Nordeste 0 -- -- 90
2020-03-26 03:00:00 10 6 Norte 13 Norte 0 -- -- 90
2020-03-26 02:00:00 10.2 8 Norte 13 Nordeste 0 -- -- 88
2020-03-26 01:00:00 10.7 7 Norte 11 Norte 0 -- -- 85
2020-03-26 00:00:00 11.1 6 Norte 11 Nordeste 0 -- -- 84
2020-03-25 23:00:00 11.9 7 Este 12 Este 0 -- -- 79
2020-03-25 22:00:00 12.1 7 Norte 12 Norte 0 -- -- 82
2020-03-25 21:00:00 13.2 4 Nordeste 10 Sudeste 0 -- -- 76
2020-03-25 20:00:00 14.4 10 Sudeste 22 Este 0 -- -- 72
2020-03-25 19:00:00 16.5 10 Sudeste 29 Sudeste 0 -- -- 67
2020-03-25 18:00:00 17.8 12 Sudeste 27 Sur 0 -- -- 66
2020-03-25 17:00:00 17.5 14 Este 28 Este 0 -- -- 62
2020-03-25 16:00:00 18.6 17 Este 28 Este 0 -- -- 57
2020-03-25 15:00:00 17.7 16 Este 28 Este 0 -- -- 61
2020-03-25 14:00:00 18.2 16 Este 25 Este 0 -- -- 63
2020-03-25 13:00:00 17.6 10 Este 31 Sudeste 0 -- -- 65
2020-03-25 12:00:00 16 15 Este 30 Sudeste 0 -- -- 68
2020-03-25 11:00:00 15 15 Este 35 Este 0 -- -- 76
2020-03-25 10:00:00 14.3 14 Este 25 Este 0 -- -- 80
2020-03-25 09:00:00 14 9 Nordeste 24 Nordeste 0.2 -- -- 78
2020-03-25 08:00:00 13.2 9 Este 23 Nordeste 0.4 -- -- 87
2020-03-25 07:00:00 14.5 9 Sudeste 18 Sudeste 0 -- -- 75
2020-03-25 06:00:00 14.8 4 Sudeste 14 Sudeste 0 -- -- 74
2020-03-25 05:00:00 14.9 3 Sudoeste 22 Sudeste 0 -- -- 75
2020-03-25 04:00:00 14.8 6 Sudoeste 23 Oeste 0 -- -- 73
2020-03-25 03:00:00 15 5 Norte 22 Sur 0 -- -- 71
2020-03-25 02:00:00 14.9 6 Oeste 16 Sudoeste 0 -- -- 72
2020-03-25 01:00:00 14.7 10 Oeste 18 Oeste 0 -- -- 76
2020-03-25 00:00:00 14.4 5 Norte 29 Sudeste 0 -- -- 80
2020-03-24 23:00:00 14.2 15 Sudeste 39 Sudeste 0 -- -- 81
2020-03-24 22:00:00 13.6 9 Nordeste 19 Nordeste 0 -- -- 84
2020-03-24 21:00:00 12.6 11 Este 15 Nordeste 0 -- -- 90
2020-03-24 20:00:00 13.6 9 Nordeste 13 Nordeste 0 -- -- 87
2020-03-24 19:00:00 14.6 11 Nordeste 25 Nordeste 0 -- -- 84
2020-03-24 18:00:00 15.2 14 Nordeste 26 Nordeste 0 -- -- 83
2020-03-24 17:00:00 13.6 18 Nordeste 24 Nordeste 0.2 -- -- 88
2020-03-24 16:00:00 13.3 18 Nordeste 22 Nordeste 0.6 -- -- 91
2020-03-24 15:00:00 12.8 13 Nordeste 19 Nordeste 1.6 -- -- 91
2020-03-24 14:00:00 13 10 Norte 19 Nordeste 0.8 -- -- 91
2020-03-24 13:00:00 12.6 9 Este 21 Nordeste 1.6 -- -- 92
2020-03-24 12:00:00 12.2 14 Nordeste 22 Nordeste 1 -- -- 93
2020-03-24 11:00:00 12.1 8 Nordeste 13 Este 0.4 -- -- 93
2020-03-24 10:00:00 11.3 10 Norte 16 Norte 3 -- -- 93
2020-03-24 09:00:00 11.3 5 Norte 14 Norte 6 -- -- 93
2020-03-24 08:00:00 11.6 5 Nordeste 13 Nordeste 6.8 -- -- 92
2020-03-24 07:00:00 11.3 9 Nordeste 15 Nordeste 2.2 -- -- 92
2020-03-24 06:00:00 11.5 5 Nordeste 16 Nordeste 4.8 -- -- 91
2020-03-24 05:00:00 11.5 10 Nordeste 19 Nordeste 0.6 -- -- 89
2020-03-24 04:00:00 12.1 11 Nordeste 22 Norte 0 -- -- 84
2020-03-24 03:00:00 12.6 13 Norte 24 Norte 0 -- -- 77
2020-03-24 02:00:00 13.8 12 Nordeste 22 Nordeste 0 -- -- 71
2020-03-24 01:00:00 13.7 13 Nordeste 20 Nordeste 0 -- -- 69
2020-03-24 00:00:00 13.2 8 Norte 16 Norte 0 -- -- 74
2020-03-23 23:00:00 13.4 9 Norte 21 Nordeste 0 -- -- 73
2020-03-23 22:00:00 13.6 14 Nordeste 25 Nordeste 0 -- -- 72
2020-03-23 21:00:00 13.9 13 Nordeste 48 Este 0 -- -- 72
2020-03-23 20:00:00 14.3 30 Este 52 Este 0 -- -- 69
2020-03-23 19:00:00 15.4 18 Este 40 Este 0 -- -- 63
2020-03-23 18:00:00 16.9 28 Este 43 Este 0 -- -- 60
2020-03-23 17:00:00 16.6 27 Este 41 Este 0 -- -- 63
2020-03-23 16:00:00 18.4 26 Este 39 Este 0 -- -- 56
2020-03-23 15:00:00 18.8 22 Este 38 Este 0 -- -- 56
2020-03-23 14:00:00 18.4 23 Este 36 Este 0 -- -- 55
2020-03-23 13:00:00 18.4 18 Este 28 Este 0 -- -- 59
2020-03-23 12:00:00 17.5 18 Este 28 Este 0 -- -- 63
2020-03-23 11:00:00 16.4 20 Este 30 Este 0 -- -- 68
2020-03-23 10:00:00 13.5 9 Norte 20 Norte 0 -- -- 82
2020-03-23 09:00:00 10.1 11 Norte 20 Nordeste 0 -- -- 91
2020-03-23 08:00:00 9 10 Norte 15 Norte 0 -- -- 92
2020-03-23 07:00:00 8.9 9 Norte 16 Norte 0 -- -- 92
2020-03-23 06:00:00 8.7 8 Nordeste 15 Norte 0 -- -- 92
2020-03-23 05:00:00 8.7 10 Norte 17 Norte 0 -- -- 92
2020-03-23 04:00:00 9.2 8 Norte 14 Norte 0 -- -- 92
2020-03-23 03:00:00 9 7 Norte 14 Norte 0 -- -- 92
2020-03-23 02:00:00 9.4 8 Norte 12 Norte 0 -- -- 91
2020-03-23 01:00:00 9.5 5 Norte 11 Norte 0 -- -- 89
2020-03-23 00:00:00 10.1 7 Norte 11 Norte 0 -- -- 89
2020-03-22 23:00:00 10.5 5 Norte 10 Nordeste 0 -- -- 89
2020-03-22 22:00:00 10.9 4 Nordeste 9 Nordeste 0 -- -- 85
2020-03-22 21:00:00 13.4 6 Noroeste 10 Noroeste 0 -- -- 73
2020-03-22 20:00:00 14.2 8 Noroeste 17 Oeste 0 -- -- 72
2020-03-22 19:00:00 15.8 13 Oeste 21 Oeste 0 -- -- 67
2020-03-22 18:00:00 16.2 16 Oeste 22 Oeste 0 -- -- 67
2020-03-22 17:00:00 16.3 20 Oeste 24 Sudoeste 0 -- -- 68
2020-03-22 16:00:00 16.4 20 Oeste 24 Oeste 0 -- -- 65
2020-03-22 15:00:00 16.6 16 Oeste 20 Sudoeste 0 -- -- 67
2020-03-22 14:00:00 16.8 15 Sudoeste 20 Sudoeste 0 -- -- 69
2020-03-22 13:00:00 16.4 16 Sur 20 Sur 0 -- -- 74
2020-03-22 12:00:00 16.3 14 Sur 19 Sur 0 -- -- 72
2020-03-22 11:00:00 15.9 11 Sur 15 Sur 0 -- -- 74
2020-03-22 10:00:00 13.8 3 Sudeste 12 Norte 0 -- -- 85
2020-03-22 09:00:00 11.1 4 Norte 10 Norte 0 -- -- 93
2020-03-22 08:00:00 10.2 6 Nordeste 13 Nordeste 0.2 -- -- 93
2020-03-22 07:00:00 10.6 4 Norte 9 Norte 0.2 -- -- 92
2020-03-22 06:00:00 10.5 5 Norte 11 Norte 0 -- -- 92
2020-03-22 05:00:00 10.5 5 Norte 25 Noroeste 0 -- -- 93
2020-03-22 04:00:00 10.6 5 Norte 9 Norte 0 -- -- 91
2020-03-22 03:00:00 11.4 10 Norte 27 Oeste 0.2 -- -- 89
2020-03-22 02:00:00 12.1 15 Sur 19 Sur 0.2 -- -- 88
2020-03-22 01:00:00 11.4 3 Este 10 Sudeste 0 -- -- 87
2020-03-22 00:00:00 11.2 5 Sudeste 13 Oeste 1.4 -- -- 89
2020-03-21 23:00:00 11.4 13 Sudoeste 20 Noroeste 3.8 -- -- 86
2020-03-21 22:00:00 12.1 6 Noroeste 27 Oeste 0.8 -- -- 77
2020-03-21 21:00:00 13.9 11 Noroeste 21 Oeste 0 -- -- 71
2020-03-21 20:00:00 14.1 13 Oeste 25 Oeste 0 -- -- 69
2020-03-21 19:00:00 15.1 21 Oeste 38 Oeste 0 -- -- 67
2020-03-21 18:00:00 15.6 26 Oeste 45 Oeste 0 -- -- 66
2020-03-21 17:00:00 14.1 33 Sudoeste 46 Sudoeste 0.2 -- -- 85
2020-03-21 16:00:00 13.5 27 Sudoeste 45 Oeste 3 -- -- 90
2020-03-21 15:00:00 11.8 38 Sudoeste 71 Sudoeste 2 -- -- 89
2020-03-21 14:00:00 13.5 41 Sudoeste 60 Sudoeste 2.4 -- -- 86
2020-03-21 13:00:00 15.1 43 Sudoeste 53 Sudoeste 0 -- -- 68
2020-03-21 12:00:00 15 31 Sur 53 Sudoeste 0 -- -- 73
2020-03-21 11:00:00 14.7 29 Sudoeste 45 Sudoeste 0 -- -- 67
2020-03-21 10:00:00 14.9 26 Sudoeste 31 Sudoeste 0 -- -- 67
2020-03-21 09:00:00 13.3 13 Oeste 30 Oeste 0.8 -- -- 77
2020-03-21 08:00:00 12.3 10 Noroeste 31 Oeste 0.4 -- -- 79
2020-03-21 07:00:00 12.4 12 Noroeste 21 Oeste 0 -- -- 74
2020-03-21 06:00:00 12.3 14 Oeste 21 Oeste 0 -- -- 76
2020-03-21 05:00:00 12.2 14 Noroeste 20 Noroeste 0 -- -- 78
2020-03-21 04:00:00 12.5 13 Noroeste 28 Noroeste 0 -- -- 83
2020-03-21 03:00:00 12.9 4 Oeste 8 Norte 0 -- -- 85
2020-03-21 02:00:00 13.3 5 Norte 16 Noroeste 0 -- -- 86
2020-03-21 01:00:00 13.5 13 Noroeste 22 Oeste 0 -- -- 84
2020-03-21 00:00:00 13 17 Oeste 47 Oeste 2 -- -- 88
2020-03-20 23:00:00 14.2 38 Oeste 58 Sudoeste 5.4 -- -- 85
2020-03-20 22:00:00 15.7 26 Sudeste 38 Sudeste 0.2 -- -- 84
2020-03-20 21:00:00 16.1 27 Sudeste 40 Sudeste 0 -- -- 77
2020-03-20 20:00:00 16 28 Sudeste 47 Sudeste 0 -- -- 76
2020-03-20 19:00:00 16.4 27 Sudeste 41 Sudeste 0 -- -- 72
2020-03-20 18:00:00 17.1 29 Sudeste 46 Sudeste 0 -- -- 70
2020-03-20 17:00:00 17.4 30 Sudeste 48 Sudeste 0 -- -- 68
2020-03-20 16:00:00 18.9 26 Sudeste 41 Sudeste 0 -- -- 64
2020-03-20 15:00:00 18.4 24 Sudeste 46 Sudeste 0 -- -- 66
2020-03-20 14:00:00 17.6 27 Sudeste 49 Sudeste 0 -- -- 69
2020-03-20 13:00:00 17.3 22 Sudeste 41 Este 0 -- -- 69
2020-03-20 12:00:00 17.3 25 Sudeste 38 Este 0 -- -- 72
2020-03-20 11:00:00 16.7 15 Sudeste 37 Sudeste 0 -- -- 74
2020-03-20 10:00:00 16.6 23 Sudeste 39 Sudeste 0 -- -- 73
2020-03-20 09:00:00 15.9 17 Sudeste 37 Sudeste 0 -- -- 75
2020-03-20 08:00:00 15.1 13 Este 41 Este 0 -- -- 79
2020-03-20 07:00:00 14.9 16 Sudeste 37 Este 0 -- -- 81
2020-03-20 06:00:00 15.4 22 Sudeste 39 Sudeste 0 -- -- 75
2020-03-20 05:00:00 15.5 9 Nordeste 23 Sudeste 0 -- -- 73
2020-03-20 04:00:00 15.4 4 Nordeste 30 Sudeste 0 -- -- 74
2020-03-20 03:00:00 15.6 9 Este 31 Este 0 -- -- 74
2020-03-20 02:00:00 15.7 19 Nordeste 36 Este 0 -- -- 74
2020-03-20 01:00:00 16.1 17 Este 35 Este 0 -- -- 71
2020-03-20 00:00:00 16.6 8 Nordeste 40 Sudeste 0 -- -- 67
2020-03-19 23:00:00 16.2 28 Sudeste 63 Este 0 -- -- 70
2020-03-19 22:00:00 16.1 47 Sudeste 83 Sudeste 0 -- -- 71
2020-03-19 21:00:00 16.1 42 Sudeste 76 Sudeste 0 -- -- 70
2020-03-19 20:00:00 16.1 15 Nordeste 60 Sudeste 0 -- -- 70
2020-03-19 19:00:00 16.4 37 Este 77 Sudeste 0 -- -- 69
2020-03-19 18:00:00 16.5 48 Sudeste 73 Sudeste 0 -- -- 69
2020-03-19 17:00:00 16.8 25 Sudeste 82 Sudeste 0 -- -- 68
2020-03-19 16:00:00 16.8 49 Este 77 Sudeste 0 -- -- 70
2020-03-19 15:00:00 17 35 Sudeste 60 Este 0 -- -- 69
2020-03-19 14:00:00 17.3 26 Sudeste 62 Sudeste 0 -- -- 69
2020-03-19 13:00:00 17.1 36 Sudeste 72 Sudeste 0 -- -- 70
2020-03-19 12:00:00 17.2 54 Sudeste 84 Sudeste 0 -- -- 69
2020-03-19 11:00:00 17.6 47 Sudeste 75 Este 0 -- -- 68
2020-03-19 10:00:00 17.1 24 Este 54 Este 0 -- -- 68
2020-03-19 09:00:00 16.3 26 Este 53 Este 0 -- -- 72
2020-03-19 08:00:00 15.9 27 Este 80 Este 0 -- -- 74
2020-03-19 07:00:00 15.9 48 Este 77 Este 0 -- -- 73
2020-03-19 06:00:00 15.9 43 Sudeste 94 Este 0 -- -- 74
2020-03-19 05:00:00 16 72 Este 98 Este 0 -- -- 76
2020-03-19 04:00:00 16.3 24 Este 50 Sudeste 0 -- -- 75
2020-03-19 03:00:00 16.6 37 Sudeste 52 Sudeste 0 -- -- 72
2020-03-19 02:00:00 16.3 30 Sudeste 53 Sudeste 0 -- -- 72
2020-03-19 01:00:00 16.6 23 Sudeste 61 Este 0 -- -- 69
2020-03-19 00:00:00 16.6 33 Sudeste 80 Este 0 -- -- 69
2020-03-18 23:00:00 16.8 51 Sudeste 85 Sudeste 0 -- -- 66
2020-03-18 22:00:00 16.6 49 Sudeste 88 Sudeste 0 -- -- 69
2020-03-18 21:00:00 16.8 58 Sudeste 99 Sudeste 0 -- -- 66
2020-03-18 20:00:00 16.6 65 Sudeste 96 Sudeste 0 -- -- 68
2020-03-18 19:00:00 16.8 59 Sudeste 97 Sudeste 0 -- -- 68
2020-03-18 18:00:00 17.2 51 Sudeste 89 Sudeste 0 -- -- 68
2020-03-18 17:00:00 17.7 63 Sudeste 100 Este 0 -- -- 67
2020-03-18 16:00:00 18.5 64 Sudeste 104 Este 0 -- -- 65
2020-03-18 15:00:00 18.6 69 Este 104 Sudeste 0 -- -- 65
2020-03-18 14:00:00 18.4 65 Sudeste 95 Sudeste 0 -- -- 67
2020-03-18 13:00:00 18.3 63 Sudeste 98 Este 0 -- -- 69
2020-03-18 12:00:00 17.6 65 Este 100 Este 0 -- -- 71
2020-03-18 11:00:00 17 61 Este 96 Este 0 -- -- 74
2020-03-18 10:00:00 16.1 64 Este 90 Este 0 -- -- 78
2020-03-18 09:00:00 15.8 54 Este 83 Este 0 -- -- 80
2020-03-18 08:00:00 15.7 48 Este 83 Este 0 -- -- 80
2020-03-18 07:00:00 15.6 52 Este 88 Sudeste 0 -- -- 80
2020-03-18 06:00:00 15.4 51 Este 95 Este 0 -- -- 82
2020-03-18 05:00:00 15.3 45 Este 76 Este 0 -- -- 83
2020-03-18 04:00:00 15.6 43 Este 72 Este 0 -- -- 83
2020-03-18 03:00:00 15.9 44 Este 68 Este 0.2 -- -- 82
2020-03-18 02:00:00 15.9 36 Este 73 Este 0 -- -- 83
2020-03-18 01:00:00 15.8 30 Este 71 Este 2.8 -- -- 82
2020-03-18 00:00:00 15.1 20 Sudeste 39 Sudeste 2.8 -- -- 87
2020-03-17 23:00:00 15.3 18 Sudeste 46 Este 0.6 -- -- 81
2020-03-17 22:00:00 14.5 22 Este 45 Este 0.2 -- -- 80
2020-03-17 21:00:00 14.8 32 Este 55 Sudeste 0.6 -- -- 72
2020-03-17 20:00:00 15.5 22 Este 36 Este 0 -- -- 67
2020-03-17 19:00:00 15.8 24 Este 48 Este 0 -- -- 62
2020-03-17 18:00:00 17.2 30 Este 54 Este 0 -- -- 61
2020-03-17 17:00:00 16.4 33 Este 56 Este 0 -- -- 61
2020-03-17 16:00:00 16.6 34 Este 53 Este 0 -- -- 61
2020-03-17 15:00:00 17.1 35 Este 55 Este 0 -- -- 56
2020-03-17 14:00:00 16.8 33 Este 56 Sudeste 0 -- -- 58
2020-03-17 13:00:00 15.7 33 Sudeste 52 Sudeste 0 -- -- 59
2020-03-17 12:00:00 14.8 19 Sudeste 36 Sudeste 0 -- -- 68
2020-03-17 11:00:00 13 22 Sudeste 55 Sur 1.4 -- -- 71
2020-03-17 10:00:00 11 22 Sudeste 42 Sur 1.4 -- -- 80
2020-03-17 09:00:00 12.4 32 Sudeste 52 Sur 0 -- -- 71
2020-03-17 08:00:00 13 41 Sur 53 Sur 0 -- -- 71
2020-03-17 07:00:00 13.2 44 Sur 51 Sur 0 -- -- 74
2020-03-17 06:00:00 11.2 26 Sur 36 Sudoeste 0 -- -- 87
2020-03-17 05:00:00 9 11 Nordeste 19 Norte 0 -- -- 84
2020-03-17 04:00:00 9.5 13 Nordeste 25 Nordeste 0.2 -- -- 80
2020-03-17 03:00:00 9.9 7 Norte 15 Norte 0 -- -- 70
2020-03-17 02:00:00 9.6 6 Norte 12 Nordeste 0 -- -- 68
2020-03-17 01:00:00 9.9 5 Norte 10 Norte 0 -- -- 67
2020-03-17 00:00:00 10.7 9 Nordeste 15 Norte 0 -- -- 62
2020-03-16 23:00:00 12.2 9 Norte 13 Norte 0 -- -- 53
2020-03-16 22:00:00 13.7 5 Norte 18 Noroeste 0 -- -- 49
2020-03-16 21:00:00 14.2 11 Oeste 21 Oeste 0 -- -- 49
2020-03-16 20:00:00 14.7 13 Oeste 29 Oeste 0 -- -- 47
2020-03-16 19:00:00 16 21 Oeste 44 Noroeste 0 -- -- 44
2020-03-16 18:00:00 16.7 27 Noroeste 50 Oeste 0 -- -- 43
2020-03-16 17:00:00 16.9 30 Noroeste 49 Oeste 0 -- -- 40
2020-03-16 16:00:00 16.6 27 Noroeste 45 Oeste 0 -- -- 43
2020-03-16 15:00:00 15.3 25 Noroeste 44 Oeste 0 -- -- 52
2020-03-16 14:00:00 15.5 23 Noroeste 41 Noroeste 0 -- -- 47
2020-03-16 13:00:00 15.2 29 Noroeste 39 Noroeste 0 -- -- 48
2020-03-16 12:00:00 15.2 17 Norte 34 Norte 0 -- -- 44
2020-03-16 11:00:00 13.1 24 Norte 42 Norte 0 -- -- 46
2020-03-16 10:00:00 11.9 22 Norte 34 Norte 0 -- -- 50
2020-03-16 09:00:00 11 18 Norte 36 Norte 0 -- -- 51
2020-03-16 08:00:00 11.5 17 Norte 31 Norte 0 -- -- 46
2020-03-16 07:00:00 11.8 15 Norte 27 Noroeste 0 -- -- 55
2020-03-16 06:00:00 12.5 14 Norte 31 Norte 0 -- -- 60
2020-03-16 05:00:00 13.3 13 Norte 26 Norte 0 -- -- 68
2020-03-16 04:00:00 13.8 13 Norte 26 Noroeste 0 -- -- 79
2020-03-16 03:00:00 13.9 5 Nordeste 9 Este 0 -- -- 90
2020-03-16 02:00:00 13.7 7 Nordeste 12 Nordeste 0 -- -- 91
2020-03-16 01:00:00 14.1 9 Nordeste 16 Norte 0.2 -- -- 88
2020-03-16 00:00:00 15.4 5 Norte 11 Norte 0 -- -- 80
2020-03-15 23:00:00 15.6 4 Nordeste 11 Oeste 0 -- -- 76
2020-03-15 22:00:00 15 0 Calma 10 Norte 0 -- -- 77
2020-03-15 21:00:00 15.6 6 Norte 20 Sur 0 -- -- 73
2020-03-15 20:00:00 16.9 7 Sudeste 21 Sur 0 -- -- 74
2020-03-15 19:00:00 19.7 7 Sudeste 24 Sur 0 -- -- 63
2020-03-15 18:00:00 20.1 15 Sur 35 Sur 0 -- -- 65
2020-03-15 17:00:00 20.7 15 Sur 25 Sur 0 -- -- 64
2020-03-15 16:00:00 20.7 20 Sur 28 Sudeste 0 -- -- 63
2020-03-15 15:00:00 21.6 13 Este 34 Sudeste 0 -- -- 56
2020-03-15 14:00:00 21.6 19 Sudeste 37 Sudeste 0 -- -- 55
2020-03-15 13:00:00 21 21 Este 37 Este 0 -- -- 54
2020-03-15 12:00:00 19.6 20 Sudeste 41 Este 0 -- -- 60
2020-03-15 11:00:00 18.8 23 Este 35 Este 0 -- -- 64
2020-03-15 10:00:00 17 23 Este 35 Este 0 -- -- 72
2020-03-15 09:00:00 16.3 18 Este 29 Este 0 -- -- 75
2020-03-15 08:00:00 15.4 16 Este 28 Este 0 -- -- 78
2020-03-15 07:00:00 15.2 13 Este 22 Este 0 -- -- 78
2020-03-15 06:00:00 15.2 5 Nordeste 36 Sudeste 0 -- -- 76
2020-03-15 05:00:00 15.4 14 Este 28 Este 0 -- -- 75
2020-03-15 04:00:00 15.5 9 Este 24 Este 0 -- -- 72
2020-03-15 03:00:00 15 12 Este 27 Sudeste 0 -- -- 77
2020-03-15 02:00:00 15.4 9 Este 21 Este 0 -- -- 73
2020-03-15 01:00:00 14.9 7 Nordeste 16 Norte 0 -- -- 75
2020-03-15 00:00:00 14.7 8 Nordeste 18 Este 0 -- -- 74
2020-03-14 23:00:00 14.9 12 Nordeste 22 Nordeste 0 -- -- 76
2020-03-14 22:00:00 15.4 13 Nordeste 23 Nordeste 0 -- -- 73
2020-03-14 21:00:00 15.6 15 Nordeste 25 Este 0 -- -- 74
2020-03-14 20:00:00 16.6 16 Este 25 Este 0 -- -- 71
2020-03-14 19:00:00 19.3 17 Este 26 Este 0 -- -- 62
2020-03-14 18:00:00 21.3 15 Este 25 Este 0 -- -- 57
2020-03-14 17:00:00 20 16 Sur 27 Sur 0 -- -- 66
2020-03-14 16:00:00 20 15 Sur 30 Sur 0 -- -- 68
2020-03-14 15:00:00 19.5 22 Sur 30 Sur 0 -- -- 69
2020-03-14 14:00:00 19.6 22 Sur 28 Sur 0 -- -- 69
2020-03-14 13:00:00 20 13 Sur 17 Sur 0 -- -- 69
2020-03-14 12:00:00 19.2 10 Sudoeste 14 Sudoeste 0 -- -- 68
2020-03-14 11:00:00 18.4 5 Sur 16 Este 0 -- -- 68
2020-03-14 10:00:00 15.7 8 Norte 14 Nordeste 0 -- -- 78
2020-03-14 09:00:00 13.2 5 Norte 10 Norte 0 -- -- 89
2020-03-14 08:00:00 12.1 6 Norte 11 Norte 0 -- -- 89
2020-03-14 07:00:00 12 7 Norte 13 Norte 0 -- -- 90
2020-03-14 06:00:00 12 7 Norte 13 Norte 0 -- -- 90
2020-03-14 05:00:00 11.4 8 Nordeste 11 Norte 0 -- -- 91
2020-03-14 04:00:00 11.2 6 Norte 12 Norte 0 -- -- 92
2020-03-14 03:00:00 10.5 6 Norte 11 Norte 0 -- -- 92
2020-03-14 02:00:00 11 6 Norte 11 Norte 0 -- -- 91
2020-03-14 01:00:00 11.2 8 Nordeste 10 Nordeste 0 -- -- 89
2020-03-14 00:00:00 12.5 5 Norte 9 Norte 0 -- -- 88
2020-03-13 23:00:00 13.1 6 Norte 8 Norte 0 -- -- 85
2020-03-13 22:00:00 13.7 5 Nordeste 6 Este 0 -- -- 85
2020-03-13 21:00:00 15.3 3 Noroeste 7 Oeste 0 -- -- 77
2020-03-13 20:00:00 15.9 4 Oeste 12 Oeste 0 -- -- 76
2020-03-13 19:00:00 16.9 8 Oeste 14 Oeste 0 -- -- 73
2020-03-13 18:00:00 17.2 12 Oeste 16 Oeste 0 -- -- 72
2020-03-13 17:00:00 18.6 8 Sudoeste 12 Sudoeste 0 -- -- 69
2020-03-13 16:00:00 18.5 10 Oeste 15 Oeste 0 -- -- 67
2020-03-13 15:00:00 18.2 13 Oeste 17 Sudoeste 0 -- -- 69
2020-03-13 14:00:00 18.4 13 Sudoeste 21 Sudoeste 0 -- -- 68
2020-03-13 13:00:00 17 13 Oeste 18 Oeste 0 -- -- 71
2020-03-13 12:00:00 16.7 10 Oeste 16 Oeste 0 -- -- 73
2020-03-13 11:00:00 16.1 10 Oeste 16 Oeste 0 -- -- 74
2020-03-13 10:00:00 15.6 9 Oeste 15 Oeste 0 -- -- 75
2020-03-13 09:00:00 15.2 9 Oeste 20 Oeste 0 -- -- 77
2020-03-13 08:00:00 15.1 9 Oeste 15 Oeste 0 -- -- 79
2020-03-13 07:00:00 15.1 6 Oeste 13 Oeste 0 -- -- 80
2020-03-13 06:00:00 14.5 3 Norte 6 Norte 0 -- -- 87
2020-03-13 05:00:00 15.4 3 Norte 11 Oeste 0 -- -- 85
2020-03-13 04:00:00 15.8 10 Sudoeste 17 Oeste 0 -- -- 83
2020-03-13 03:00:00 15.7 12 Oeste 19 Sudoeste 0 -- -- 85
2020-03-13 02:00:00 15 6 Oeste 17 Sudoeste 0 -- -- 91
2020-03-13 01:00:00 14.4 8 Oeste 12 Oeste 0 -- -- 89
2020-03-13 00:00:00 14.1 5 Norte 10 Este 0 -- -- 92
2020-03-12 23:00:00 14.1 6 Este 13 Nordeste 0 -- -- 90
2020-03-12 22:00:00 15 6 Nordeste 12 Nordeste 0 -- -- 89
2020-03-12 21:00:00 16 6 Norte 15 Noroeste 0 -- -- 84
2020-03-12 20:00:00 16.9 7 Norte 12 Noroeste 0 -- -- 81
2020-03-12 19:00:00 18.5 5 Norte 19 Oeste 0 -- -- 69
2020-03-12 18:00:00 18.6 18 Oeste 27 Oeste 0 -- -- 77
2020-03-12 17:00:00 18.3 19 Oeste 24 Oeste 0 -- -- 79
2020-03-12 16:00:00 18.4 15 Sudoeste 20 Sudoeste 0 -- -- 78
2020-03-12 15:00:00 17.6 19 Oeste 23 Sudoeste 0 -- -- 82
2020-03-12 14:00:00 17.1 18 Sudoeste 23 Sudoeste 0 -- -- 84
2020-03-12 13:00:00 17.1 20 Sudoeste 26 Sudoeste 0 -- -- 83
2020-03-12 12:00:00 17.7 17 Sudoeste 21 Sudoeste 0 -- -- 83
2020-03-12 11:00:00 17.1 16 Oeste 19 Sudoeste 0 -- -- 82
2020-03-12 10:00:00 16.5 13 Oeste 21 Oeste 0 -- -- 85
2020-03-12 09:00:00 15.7 16 Sudoeste 19 Sudoeste 0 -- -- 90
2020-03-12 08:00:00 15.8 12 Sudoeste 21 Sur 0 -- -- 85
2020-03-12 07:00:00 15.1 16 Oeste 23 Oeste 0 -- -- 89
2020-03-12 06:00:00 16 11 Sudoeste 16 Sudoeste 0 -- -- 83
2020-03-12 05:00:00 13.2 2 Oeste 8 Este 0 -- -- 77
2020-03-12 04:00:00 13.4 2 Noroeste 10 Oeste 0 -- -- 75
2020-03-12 03:00:00 15.3 6 Noroeste 11 Norte 0 -- -- 62
2020-03-12 02:00:00 13.5 6 Nordeste 10 Nordeste 0 -- -- 70
2020-03-12 01:00:00 15.7 6 Noroeste 11 Norte 0 -- -- 59
2020-03-12 00:00:00 17.5 5 Norte 14 Norte 0 -- -- 48
2020-03-11 23:00:00 18.8 6 Norte 27 Norte 0 -- -- 44
2020-03-11 22:00:00 22 14 Nordeste 30 Este 0 -- -- 39
2020-03-11 21:00:00 18.5 9 Este 20 Sudeste 0 -- -- 47
2020-03-11 20:00:00 21.1 13 Sudeste 26 Este 0 -- -- 38
2020-03-11 19:00:00 23.2 12 Este 28 Este 0 -- -- 36
2020-03-11 18:00:00 24.1 10 Sudeste 31 Este 0 -- -- 42
2020-03-11 17:00:00 22.6 9 Sur 32 Sudeste 0 -- -- 51
2020-03-11 16:00:00 22.1 12 Sudeste 27 Sur 0 -- -- 48
2020-03-11 15:00:00 24 15 Sur 41 Este 0 -- -- 46
2020-03-11 14:00:00 21.9 15 Sur 30 Este 0 -- -- 50
2020-03-11 13:00:00 23.4 10 Nordeste 38 Este 0 -- -- 37
2020-03-11 12:00:00 22.1 25 Este 45 Este 0 -- -- 38
2020-03-11 11:00:00 21.9 10 Nordeste 40 Nordeste 0 -- -- 40
2020-03-11 10:00:00 18.9 24 Nordeste 42 Nordeste 0 -- -- 50
2020-03-11 09:00:00 16.8 27 Nordeste 36 Nordeste 0 -- -- 52
2020-03-11 08:00:00 15.8 29 Nordeste 37 Nordeste 0 -- -- 52
2020-03-11 07:00:00 15.7 26 Este 37 Este 0 -- -- 52
2020-03-11 06:00:00 16.3 19 Este 40 Este 0 -- -- 50
2020-03-11 05:00:00 14.3 20 Nordeste 26 Nordeste 0 -- -- 54
2020-03-11 04:00:00 15.3 10 Nordeste 24 Este 0 -- -- 50
2020-03-11 03:00:00 16.5 18 Este 36 Este 0 -- -- 47
2020-03-11 02:00:00 15.8 8 Este 33 Nordeste 0 -- -- 50
2020-03-11 01:00:00 15.8 10 Nordeste 23 Nordeste 0 -- -- 52
2020-03-11 00:00:00 17.3 15 Este 34 Este 0 -- -- 48
2020-03-10 23:00:00 18.4 27 Este 41 Nordeste 0 -- -- 41
2020-03-10 22:00:00 19.9 13 Sudeste 50 Sur 0 -- -- 36
2020-03-10 21:00:00 18.5 19 Nordeste 39 Este 0 -- -- 44
2020-03-10 20:00:00 19.6 19 Nordeste 35 Nordeste 0 -- -- 37
2020-03-10 19:00:00 19.6 20 Nordeste 44 Este 0 -- -- 45
2020-03-10 18:00:00 21.2 28 Este 44 Sudeste 0 -- -- 45
2020-03-10 17:00:00 22.8 32 Este 44 Este 0 -- -- 45
2020-03-10 16:00:00 23.9 25 Este 38 Este 0 -- -- 42
2020-03-10 15:00:00 24 27 Este 44 Este 0 -- -- 38
2020-03-10 14:00:00 19 10 Oeste 13 Sudoeste 0 -- -- 66
2020-03-10 13:00:00 18.3 10 Sudoeste 14 Sudoeste 0 -- -- 75
2020-03-10 12:00:00 18.1 7 Sudoeste 12 Sudoeste 0 -- -- 74
2020-03-10 11:00:00 17 6 Sudoeste 9 Norte 0 -- -- 79
2020-03-10 10:00:00 13.1 7 Norte 12 Norte 0 -- -- 79
2020-03-10 09:00:00 10 7 Norte 12 Norte 0 -- -- 85
2020-03-10 08:00:00 8.3 9 Norte 14 Nordeste 0 -- -- 88
2020-03-10 07:00:00 8.8 7 Norte 13 Norte 0 -- -- 88
2020-03-10 06:00:00 9.8 8 Norte 12 Norte 0 -- -- 87
2020-03-10 05:00:00 11.2 4 Norte 10 Noroeste 0 -- -- 79
2020-03-10 04:00:00 10.5 7 Nordeste 16 Norte 0 -- -- 84
2020-03-10 03:00:00 10.5 11 Norte 17 Norte 0 -- -- 86
2020-03-10 02:00:00 10.8 8 Norte 11 Norte 0 -- -- 87
2020-03-10 01:00:00 11.7 6 Norte 10 Norte 0 -- -- 82
2020-03-10 00:00:00 13.8 3 Nordeste 10 Sudoeste 0 -- -- 82
2020-03-09 23:00:00 15 9 Sur 13 Sur 0 -- -- 83
2020-03-09 22:00:00 15.2 4 Nordeste 13 Norte 0 -- -- 72
2020-03-09 21:00:00 16.2 3 Oeste 21 Noroeste 0 -- -- 61
2020-03-09 20:00:00 17.6 13 Noroeste 22 Noroeste 0 -- -- 50
2020-03-09 19:00:00 19.6 5 Norte 27 Noroeste 0 -- -- 46
2020-03-09 18:00:00 20.5 19 Noroeste 33 Noroeste 0 -- -- 47
2020-03-09 17:00:00 20.9 23 Noroeste 33 Noroeste 0 -- -- 50
2020-03-09 16:00:00 22.3 22 Noroeste 33 Noroeste 0 -- -- 45
2020-03-09 15:00:00 21.8 26 Noroeste 34 Oeste 0 -- -- 54
2020-03-09 14:00:00 23.8 17 Norte 31 Noroeste 0 -- -- 29
2020-03-09 13:00:00 23 15 Noroeste 31 Norte 0 -- -- 36
2020-03-09 12:00:00 21.4 17 Norte 30 Norte 0 -- -- 39
2020-03-09 11:00:00 18.4 7 Sudoeste 11 Sudoeste 0 -- -- 61
2020-03-09 10:00:00 14.3 4 Nordeste 14 Este 0 -- -- 65
2020-03-09 09:00:00 10.2 4 Nordeste 10 Norte 0 -- -- 83
2020-03-09 08:00:00 8.4 4 Nordeste 9 Nordeste 0 -- -- 87
2020-03-09 07:00:00 8.9 6 Nordeste 9 Norte 0 -- -- 84
2020-03-09 06:00:00 9.7 5 Nordeste 10 Norte 0 -- -- 84
2020-03-09 05:00:00 10.2 6 Nordeste 9 Nordeste 0 -- -- 85
2020-03-09 04:00:00 10.6 6 Nordeste 9 Nordeste 0 -- -- 82
2020-03-09 03:00:00 11.7 8 Nordeste 14 Norte 0 -- -- 79
2020-03-09 02:00:00 12 7 Norte 14 Nordeste 0 -- -- 75
2020-03-09 01:00:00 13 11 Nordeste 17 Nordeste 0 -- -- 68
2020-03-09 00:00:00 14.1 11 Nordeste 14 Nordeste 0 -- -- 64
2020-03-08 23:00:00 13.3 2 Nordeste 14 Norte 0 -- -- 75
2020-03-08 22:00:00 13.2 6 Nordeste 10 Norte 0 -- -- 75
2020-03-08 21:00:00 14.2 6 Nordeste 9 Nordeste 0 -- -- 78
2020-03-08 20:00:00 16.1 4 Este 8 Sudoeste 0 -- -- 72
2020-03-08 19:00:00 17.8 11 Sudoeste 18 Sudoeste 0 -- -- 73
2020-03-08 18:00:00 18.6 14 Sudoeste 18 Sudoeste 0 -- -- 62
2020-03-08 17:00:00 19.1 13 Sudoeste 18 Sur 0 -- -- 64
2020-03-08 16:00:00 18.8 16 Sudoeste 19 Sur 0 -- -- 64
2020-03-08 15:00:00 19.2 15 Sudoeste 21 Sudoeste 0 -- -- 62
2020-03-08 14:00:00 19.4 13 Sudoeste 16 Sudoeste 0 -- -- 62
2020-03-08 13:00:00 19.7 10 Sur 17 Sur 0 -- -- 63
2020-03-08 12:00:00 20.2 9 Norte 18 Norte 0 -- -- 44
2020-03-08 11:00:00 17.5 10 Norte 16 Norte 0 -- -- 58
2020-03-08 10:00:00 14 9 Norte 19 Norte 0 -- -- 71
2020-03-08 09:00:00 10.1 10 Norte 18 Norte 0 -- -- 76
2020-03-08 08:00:00 7.9 12 Norte 20 Norte 0 -- -- 74
2020-03-08 07:00:00 7.1 11 Norte 18 Nordeste 0 -- -- 82
2020-03-08 06:00:00 6.7 12 Norte 19 Norte 0 -- -- 88
2020-03-08 05:00:00 7.7 12 Norte 20 Norte 0 -- -- 83
2020-03-08 04:00:00 8.4 8 Norte 16 Nordeste 0 -- -- 83
2020-03-08 03:00:00 7.9 10 Nordeste 16 Nordeste 0 -- -- 84
2020-03-08 02:00:00 8.8 8 Norte 15 Norte 0 -- -- 78
2020-03-08 01:00:00 9.3 9 Norte 13 Norte 0 -- -- 83
2020-03-08 00:00:00 9.7 9 Norte 13 Nordeste 0 -- -- 79
2020-03-07 23:00:00 10.2 6 Norte 13 Norte 0 -- -- 71
2020-03-07 22:00:00 11.5 10 Norte 13 Norte 0 -- -- 68
2020-03-07 21:00:00 12.9 5 Norte 11 Nordeste 0 -- -- 73
2020-03-07 20:00:00 15.8 5 Oeste 10 Sudoeste 0 -- -- 59
2020-03-07 19:00:00 17.7 11 Sudoeste 13 Sudoeste 0 -- -- 70
2020-03-07 18:00:00 18.7 12 Sudoeste 16 Sudoeste 0 -- -- 57
2020-03-07 17:00:00 18.8 13 Sudoeste 17 Sudoeste 0 -- -- 50
2020-03-07 16:00:00 19 13 Sudoeste 20 Sudoeste 0 -- -- 49
2020-03-07 15:00:00 18.2 17 Sudoeste 23 Sudoeste 0 -- -- 51
2020-03-07 14:00:00 17.8 15 Sudoeste 25 Oeste 0 -- -- 53
2020-03-07 13:00:00 19.2 15 Sudoeste 23 Oeste 0 -- -- 52
2020-03-07 12:00:00 18.3 8 Norte 17 Norte 0 -- -- 41
2020-03-07 11:00:00 15.6 6 Nordeste 18 Nordeste 0 -- -- 54
2020-03-07 10:00:00 11.8 10 Norte 18 Norte 0 -- -- 66
2020-03-07 09:00:00 9.4 10 Nordeste 19 Nordeste 0 -- -- 74
2020-03-07 08:00:00 7.3 14 Nordeste 19 Nordeste 0 -- -- 83
2020-03-07 07:00:00 7.9 13 Nordeste 17 Nordeste 0 -- -- 78
2020-03-07 06:00:00 8.7 13 Nordeste 21 Norte 0 -- -- 77
2020-03-07 05:00:00 8.9 10 Norte 19 Norte 0 -- -- 76
2020-03-07 04:00:00 8.6 10 Nordeste 14 Este 0 -- -- 79
2020-03-07 03:00:00 10.5 8 Nordeste 22 Norte 0 -- -- 73
2020-03-07 02:00:00 11 8 Norte 17 Nordeste 0 -- -- 79
2020-03-07 01:00:00 11.4 10 Este 14 Norte 0 -- -- 75
2020-03-07 00:00:00 13.9 8 Norte 21 Oeste 0 -- -- 62
2020-03-06 23:00:00 14.7 16 Oeste 27 Noroeste 0 -- -- 75
2020-03-06 22:00:00 14.9 19 Noroeste 32 Oeste 0 -- -- 72
2020-03-06 21:00:00 15.2 22 Oeste 34 Oeste 0 -- -- 71
2020-03-06 20:00:00 15.1 21 Oeste 36 Oeste 0 -- -- 69
2020-03-06 19:00:00 15.8 25 Oeste 38 Oeste 0 -- -- 63
2020-03-06 18:00:00 17 26 Noroeste 41 Noroeste 0 -- -- 56
2020-03-06 17:00:00 17.5 24 Noroeste 39 Oeste 0 -- -- 51
2020-03-06 16:00:00 17.2 23 Noroeste 40 Noroeste 0 -- -- 53
2020-03-06 15:00:00 16.9 25 Noroeste 39 Noroeste 0 -- -- 55
2020-03-06 14:00:00 17.5 26 Noroeste 39 Noroeste 0 -- -- 54
2020-03-06 13:00:00 17.6 20 Noroeste 40 Noroeste 0 -- -- 56
2020-03-06 12:00:00 16.8 19 Noroeste 39 Noroeste 0 -- -- 59
2020-03-06 11:00:00 16 16 Noroeste 32 Noroeste 0 -- -- 66
2020-03-06 10:00:00 13.8 9 Norte 24 Norte 0 -- -- 73
2020-03-06 09:00:00 11.3 6 Nordeste 8 Nordeste 0 -- -- 81
2020-03-06 08:00:00 9.8 6 Nordeste 13 Norte 0 -- -- 83
2020-03-06 07:00:00 10.5 8 Norte 25 Noroeste 0 -- -- 78
2020-03-06 06:00:00 11.1 16 Norte 26 Norte 0 -- -- 77
2020-03-06 05:00:00 11.4 14 Noroeste 26 Noroeste 0 -- -- 75
2020-03-06 04:00:00 11.4 11 Norte 24 Norte 0 -- -- 75
2020-03-06 03:00:00 12.6 13 Norte 23 Noroeste 0 -- -- 73
2020-03-06 02:00:00 13.1 15 Norte 27 Norte 0 -- -- 71
2020-03-06 01:00:00 13.8 14 Norte 22 Noroeste 0 -- -- 71
2020-03-06 00:00:00 14.2 13 Noroeste 26 Noroeste 0 -- -- 74
2020-03-05 23:00:00 14.6 14 Noroeste 22 Oeste 0 -- -- 82
2020-03-05 22:00:00 14.8 15 Oeste 24 Oeste 0 -- -- 81
2020-03-05 21:00:00 15 17 Oeste 26 Oeste 0 -- -- 81
2020-03-05 20:00:00 14.8 16 Oeste 24 Oeste 0 -- -- 80
2020-03-05 19:00:00 15.9 16 Oeste 23 Oeste 0 -- -- 75
2020-03-05 18:00:00 16.1 13 Noroeste 18 Noroeste 0 -- -- 75
2020-03-05 17:00:00 15.6 11 Oeste 32 Noroeste 0.2 -- -- 83
2020-03-05 16:00:00 15.4 17 Oeste 28 Oeste 0.2 -- -- 89
2020-03-05 15:00:00 16 21 Oeste 40 Oeste 0 -- -- 84
2020-03-05 14:00:00 16.9 23 Oeste 33 Oeste 0 -- -- 72
2020-03-05 13:00:00 16.4 22 Oeste 31 Sudoeste 0 -- -- 80
2020-03-05 12:00:00 17.4 19 Oeste 26 Oeste 0 -- -- 75
2020-03-05 11:00:00 15.8 12 Noroeste 24 Noroeste 0 -- -- 80
2020-03-05 10:00:00 14.7 6 Norte 13 Noroeste 0 -- -- 86
2020-03-05 09:00:00 13.5 10 Noroeste 20 Oeste 0 -- -- 91
2020-03-05 08:00:00 9.7 0 Calma 9 Norte 0 -- -- 95
2020-03-05 07:00:00 8.5 5 Norte 9 Norte 0 -- -- 93
2020-03-05 06:00:00 9.5 7 Norte 9 Norte 0 -- -- 92
2020-03-05 05:00:00 10.3 6 Norte 9 Norte 0 -- -- 91
2020-03-05 04:00:00 11.6 0 Calma 8 Nordeste 0 -- -- 92
2020-03-05 03:00:00 11.4 6 Nordeste 10 Nordeste 0 -- -- 91
2020-03-05 02:00:00 11.6 5 Nordeste 8 Norte 0 -- -- 89
2020-03-05 01:00:00 12.5 6 Nordeste 8 Nordeste 0 -- -- 87
2020-03-05 00:00:00 13 5 Este 9 Este 0 -- -- 86
2020-03-04 23:00:00 13.8 6 Este 15 Nordeste 0 -- -- 80
2020-03-04 22:00:00 14.5 5 Norte 12 Norte 0 -- -- 80
2020-03-04 21:00:00 15 7 Nordeste 21 Norte 0 -- -- 77
2020-03-04 20:00:00 16 9 Noroeste 32 Noroeste 0 -- -- 75
2020-03-04 19:00:00 17.5 19 Noroeste 30 Noroeste 0 -- -- 69
2020-03-04 18:00:00 19 21 Noroeste 33 Oeste 0 -- -- 61
2020-03-04 17:00:00 20.2 21 Noroeste 37 Oeste 0 -- -- 58
2020-03-04 16:00:00 20.1 25 Noroeste 36 Noroeste 0 -- -- 59
2020-03-04 15:00:00 20.4 21 Oeste 33 Oeste 0 -- -- 60
2020-03-04 14:00:00 19.1 19 Oeste 26 Norte 0 -- -- 70
2020-03-04 13:00:00 19.7 15 Norte 28 Noroeste 0 -- -- 57
2020-03-04 12:00:00 18.9 12 Norte 23 Norte 0 -- -- 62
2020-03-04 11:00:00 17.6 12 Norte 20 Norte 0 -- -- 69
2020-03-04 10:00:00 16 11 Norte 21 Noroeste 0 -- -- 78
2020-03-04 09:00:00 14 4 Norte 11 Norte 0 -- -- 90
2020-03-04 08:00:00 13.3 10 Norte 16 Noroeste 0 -- -- 89
2020-03-04 07:00:00 13.8 12 Noroeste 15 Norte 0 -- -- 87
2020-03-04 06:00:00 14.8 10 Noroeste 16 Noroeste 0 -- -- 86
2020-03-04 05:00:00 15.4 11 Noroeste 18 Noroeste 0 -- -- 87
2020-03-04 04:00:00 16 12 Noroeste 20 Noroeste 0 -- -- 87
2020-03-04 03:00:00 16.2 10 Noroeste 21 Oeste 0 -- -- 85
2020-03-04 02:00:00 16.3 13 Oeste 21 Oeste 0 -- -- 85
2020-03-04 01:00:00 16.3 15 Oeste 19 Oeste 0 -- -- 86
2020-03-04 00:00:00 16.3 15 Oeste 20 Oeste 0 -- -- 85
2020-03-03 23:00:00 16.1 14 Oeste 18 Oeste 0 -- -- 84
2020-03-03 22:00:00 15.5 7 Noroeste 15 Oeste 0 -- -- 83
2020-03-03 21:00:00 15.5 8 Oeste 16 Oeste 0 -- -- 82
2020-03-03 20:00:00 15.6 12 Noroeste 25 Oeste 0 -- -- 78
2020-03-03 19:00:00 16.5 18 Oeste 35 Oeste 0 -- -- 74
2020-03-03 18:00:00 16.9 28 Oeste 35 Oeste 0 -- -- 72
2020-03-03 17:00:00 17 24 Oeste 34 Oeste 0 -- -- 69
2020-03-03 16:00:00 16.7 24 Oeste 35 Oeste 0 -- -- 71
2020-03-03 15:00:00 17.3 21 Oeste 37 Oeste 0 -- -- 67
2020-03-03 14:00:00 17.2 25 Oeste 31 Oeste 0 -- -- 70
2020-03-03 13:00:00 17 13 Oeste 24 Oeste 0 -- -- 70
2020-03-03 12:00:00 16.5 16 Oeste 21 Oeste 0 -- -- 70
2020-03-03 11:00:00 15.1 5 Nordeste 12 Norte 0 -- -- 75
2020-03-03 10:00:00 11.9 6 Norte 11 Nordeste 0 -- -- 85
2020-03-03 09:00:00 10.2 5 Norte 8 Norte 0 -- -- 92
2020-03-03 08:00:00 9.8 4 Este 8 Nordeste 0 -- -- 90
2020-03-03 07:00:00 9.4 0 Calma 8 Norte 0 -- -- 89
2020-03-03 06:00:00 10 6 Norte 9 Norte 0 -- -- 89
2020-03-03 05:00:00 10.8 4 Nordeste 12 Oeste 0 -- -- 87
2020-03-03 04:00:00 11.5 5 Este 11 Nordeste 0 -- -- 85
2020-03-03 03:00:00 12.7 2 Nordeste 16 Noroeste 0 -- -- 79
2020-03-03 02:00:00 13.6 10 Noroeste 15 Noroeste 0 -- -- 74
2020-03-03 01:00:00 14.1 4 Nordeste 16 Noroeste 0 -- -- 82
2020-03-03 00:00:00 14.8 12 Oeste 19 Oeste 0 -- -- 80
2020-03-02 23:00:00 15.1 11 Oeste 20 Oeste 0 -- -- 79
2020-03-02 22:00:00 15.4 10 Oeste 21 Oeste 0 -- -- 76
2020-03-02 21:00:00 15.8 13 Oeste 21 Oeste 0 -- -- 75
2020-03-02 20:00:00 15.9 9 Oeste 24 Oeste 0 -- -- 74
2020-03-02 19:00:00 17 15 Oeste 35 Oeste 0 -- -- 69
2020-03-02 18:00:00 18.2 24 Oeste 44 Oeste 0 -- -- 71
2020-03-02 17:00:00 18.4 26 Oeste 47 Oeste 0 -- -- 77
2020-03-02 16:00:00 18.2 33 Oeste 45 Oeste 0 -- -- 81
2020-03-02 15:00:00 18.1 31 Oeste 44 Oeste 0 -- -- 82
2020-03-02 14:00:00 18.1 31 Oeste 41 Oeste 0 -- -- 83
2020-03-02 13:00:00 17.6 27 Oeste 37 Oeste 0 -- -- 84
2020-03-02 12:00:00 17.9 28 Oeste 46 Sudoeste 0 -- -- 84
2020-03-02 11:00:00 17 30 Oeste 42 Oeste 0 -- -- 86
2020-03-02 10:00:00 16.9 33 Oeste 40 Oeste 0.2 -- -- 86
2020-03-02 09:00:00 16.6 30 Sudoeste 37 Sudoeste 0 -- -- 87
2020-03-02 08:00:00 16.8 26 Oeste 36 Oeste 0 -- -- 85
2020-03-02 07:00:00 16.8 24 Oeste 45 Sudoeste 0 -- -- 87
2020-03-02 06:00:00 16.8 34 Oeste 42 Oeste 0 -- -- 87
2020-03-02 05:00:00 16.7 32 Sudoeste 40 Sudoeste 0 -- -- 87
2020-03-02 04:00:00 16.6 32 Sudoeste 39 Sudoeste 0 -- -- 86
2020-03-02 03:00:00 16.6 30 Sudoeste 36 Sudoeste 0 -- -- 86
2020-03-02 02:00:00 16.5 26 Oeste 33 Sudoeste 0 -- -- 86
2020-03-02 01:00:00 16.5 25 Oeste 31 Oeste 0 -- -- 85
2020-03-02 00:00:00 16.4 21 Oeste 26 Oeste 0 -- -- 85
2020-03-01 23:00:00 16.3 18 Sudoeste 23 Sudoeste 0 -- -- 84
2020-03-01 22:00:00 16.4 19 Oeste 24 Oeste 0 -- -- 83
2020-03-01 21:00:00 16.4 20 Sudoeste 23 Sudoeste 0 -- -- 82
2020-03-01 20:00:00 16.4 16 Oeste 23 Oeste 0 -- -- 83
2020-03-01 19:00:00 17 17 Oeste 22 Oeste 0 -- -- 80
2020-03-01 18:00:00 17.6 17 Oeste 22 Sudoeste 0 -- -- 78
2020-03-01 17:00:00 18.3 19 Sudoeste 22 Oeste 0 -- -- 74
2020-03-01 16:00:00 18.5 19 Sudoeste 22 Sudoeste 0 -- -- 75
2020-03-01 15:00:00 18.5 19 Sudoeste 22 Sudoeste 0 -- -- 73
2020-03-01 14:00:00 18.6 15 Oeste 22 Sudoeste 0 -- -- 78
2020-03-01 13:00:00 18.3 17 Oeste 21 Oeste 0 -- -- 76
2020-03-01 12:00:00 17.7 14 Oeste 19 Oeste 0 -- -- 78
2020-03-01 11:00:00 16.9 15 Oeste 20 Sudoeste 0 -- -- 81
2020-03-01 10:00:00 16.3 15 Sudoeste 18 Sudoeste 0 -- -- 81
2020-03-01 09:00:00 14.4 4 Oeste 9 Oeste 0 -- -- 88
2020-03-01 08:00:00 13.8 5 Oeste 8 Oeste 0 -- -- 89
2020-03-01 07:00:00 13.9 3 Oeste 5 Oeste 0 -- -- 90
2020-03-01 06:00:00 13.7 4 Norte 13 Noroeste 0 -- -- 89
2020-03-01 05:00:00 14.5 6 Oeste 18 Noroeste 0 -- -- 87
2020-03-01 04:00:00 15.2 14 Noroeste 29 Noroeste 0 -- -- 89
2020-03-01 03:00:00 15.7 13 Oeste 30 Oeste 0.2 -- -- 90
2020-03-01 02:00:00 15.4 24 Sudoeste 40 Sudoeste 2 -- -- 93
2020-03-01 01:00:00 16.3 32 Sudoeste 42 Sudoeste 0 -- -- 88
2020-03-01 00:00:00 16.2 33 Sudoeste 43 Oeste 0 -- -- 86
2020-02-29 23:00:00 16.5 31 Sudoeste 40 Sudoeste 0 -- -- 83
2020-02-29 22:00:00 16.5 26 Sudoeste 33 Sudoeste 0 -- -- 81
2020-02-29 21:00:00 16.6 23 Oeste 29 Oeste 0 -- -- 80
2020-02-29 20:00:00 16.5 22 Oeste 30 Oeste 0 -- -- 80
2020-02-29 19:00:00 16.5 24 Oeste 30 Oeste 0 -- -- 77
2020-02-29 18:00:00 16.8 22 Oeste 27 Oeste 0 -- -- 73
2020-02-29 17:00:00 17.5 21 Oeste 25 Oeste 0 -- -- 69
2020-02-29 16:00:00 17.1 18 Oeste 27 Oeste 0 -- -- 69
2020-02-29 15:00:00 17.5 22 Oeste 32 Oeste 0 -- -- 63
2020-02-29 14:00:00 18.2 21 Oeste 31 Oeste 0 -- -- 62
2020-02-29 13:00:00 17.9 19 Oeste 28 Oeste 0 -- -- 65
2020-02-29 12:00:00 17.1 17 Noroeste 28 Noroeste 0 -- -- 64
2020-02-29 11:00:00 14.6 5 Norte 14 Nordeste 0 -- -- 82
2020-02-29 10:00:00 11.7 9 Nordeste 14 Nordeste 0 -- -- 89
2020-02-29 09:00:00 8.7 8 Nordeste 15 Norte 0 -- -- 93
2020-02-29 08:00:00 8.1 7 Norte 11 Norte 0 -- -- 93
2020-02-29 07:00:00 8.3 5 Norte 15 Nordeste 0 -- -- 94
2020-02-29 06:00:00 8.3 9 Nordeste 13 Norte 0 -- -- 93
2020-02-29 05:00:00 7.8 8 Nordeste 13 Norte 0 -- -- 93
2020-02-29 04:00:00 8.6 9 Norte 12 Norte 0 -- -- 92
2020-02-29 03:00:00 9.7 8 Norte 11 Norte 0 -- -- 90
2020-02-29 02:00:00 11.3 6 Norte 10 Este 0 -- -- 86
2020-02-29 01:00:00 11.8 5 Nordeste 9 Este 0 -- -- 85
2020-02-29 00:00:00 11.9 6 Norte 7 Norte 0 -- -- 82
2020-02-28 23:00:00 12.6 5 Norte 9 Norte 0 -- -- 81
2020-02-28 22:00:00 13.3 6 Norte 10 Norte 0 -- -- 76
2020-02-28 21:00:00 14.7 7 Norte 10 Norte 0 -- -- 66
2020-02-28 20:00:00 16.3 5 Norte 19 Sur 0 -- -- 69
2020-02-28 19:00:00 18 15 Sur 24 Sur 0 -- -- 66
2020-02-28 18:00:00 19 19 Sur 24 Sur 0 -- -- 61
2020-02-28 17:00:00 20.8 19 Sur 24 Sur 0 -- -- 53
2020-02-28 16:00:00 21.5 18 Sur 28 Sur 0 -- -- 56
2020-02-28 15:00:00 21.1 23 Sur 28 Sur 0 -- -- 52
2020-02-28 14:00:00 19.7 26 Sur 29 Sur 0 -- -- 61
2020-02-28 13:00:00 19.5 23 Sur 28 Sur 0 -- -- 65
2020-02-28 12:00:00 18.8 22 Sur 27 Sur 0 -- -- 65
2020-02-28 11:00:00 17.5 5 Sur 10 Norte 0 -- -- 65
2020-02-28 10:00:00 11.4 7 Nordeste 11 Nordeste 0 -- -- 75
2020-02-28 09:00:00 8 9 Nordeste 15 Nordeste 0 -- -- 86
2020-02-28 08:00:00 6.5 11 Nordeste 15 Norte 0 -- -- 89
2020-02-28 07:00:00 7.1 9 Norte 15 Norte 0 -- -- 86
2020-02-28 06:00:00 7.1 9 Norte 14 Norte 0 -- -- 88
2020-02-28 05:00:00 7.4 9 Norte 15 Norte 0 -- -- 87
2020-02-28 04:00:00 7.2 9 Norte 14 Este 0 -- -- 87
2020-02-28 03:00:00 7.9 9 Norte 13 Nordeste 0 -- -- 84
2020-02-28 02:00:00 9 9 Norte 14 Norte 0 -- -- 81
2020-02-28 01:00:00 10.3 6 Norte 17 Nordeste 0 -- -- 79
2020-02-28 00:00:00 12 9 Nordeste 21 Nordeste 0 -- -- 70